Map

Track Data

SID SEASON NUMBER BASIN SUBBASIN NAME ISO_TIME NATURE LAT LON WMO_WIND WMO_PRES WMO_AGENCY TRACK_TYPE DIST2LAND LANDFALL IFLAG USA_AGENCY USA_ATCF_ID USA_LAT USA_LON USA_RECORD USA_STATUS USA_WIND USA_PRES USA_SSHS USA_R34_NE USA_R34_SE USA_R34_SW USA_R34_NW USA_R50_NE USA_R50_SE USA_R50_SW USA_R50_NW USA_R64_NE USA_R64_SE USA_R64_SW USA_R64_NW USA_POCI USA_ROCI USA_RMW USA_EYE TOKYO_LAT TOKYO_LON TOKYO_GRADE TOKYO_WIND TOKYO_PRES TOKYO_R50_DIR TOKYO_R50_LONG TOKYO_R50_SHORT TOKYO_R30_DIR TOKYO_R30_LONG TOKYO_R30_SHORT TOKYO_LAND CMA_LAT CMA_LON CMA_CAT CMA_WIND CMA_PRES HKO_LAT HKO_LON HKO_CAT HKO_WIND HKO_PRES NEWDELHI_LAT NEWDELHI_LON NEWDELHI_GRADE NEWDELHI_WIND NEWDELHI_PRES NEWDELHI_CI NEWDELHI_DP NEWDELHI_POCI REUNION_LAT REUNION_LON REUNION_TYPE REUNION_WIND REUNION_PRES REUNION_TNUM REUNION_CI REUNION_RMW REUNION_R34_NE REUNION_R34_SE REUNION_R34_SW REUNION_R34_NW REUNION_R50_NE REUNION_R50_SE REUNION_R50_SW REUNION_R50_NW REUNION_R64_NE REUNION_R64_SE REUNION_R64_SW REUNION_R64_NW BOM_LAT BOM_LON BOM_TYPE BOM_WIND BOM_PRES BOM_TNUM BOM_CI BOM_RMW BOM_R34_NE BOM_R34_SE BOM_R34_SW BOM_R34_NW BOM_R50_NE BOM_R50_SE BOM_R50_SW BOM_R50_NW BOM_R64_NE BOM_R64_SE BOM_R64_SW BOM_R64_NW BOM_ROCI BOM_POCI BOM_EYE BOM_POS_METHOD BOM_PRES_METHOD NADI_LAT NADI_LON NADI_CAT NADI_WIND NADI_PRES WELLINGTON_LAT WELLINGTON_LON WELLINGTON_WIND WELLINGTON_PRES DS824_LAT DS824_LON DS824_STAGE DS824_WIND DS824_PRES TD9636_LAT TD9636_LON TD9636_STAGE TD9636_WIND TD9636_PRES TD9635_LAT TD9635_LON TD9635_WIND TD9635_PRES TD9635_ROCI NEUMANN_LAT NEUMANN_LON NEUMANN_CLASS NEUMANN_WIND NEUMANN_PRES MLC_LAT MLC_LON MLC_CLASS MLC_WIND MLC_PRES USA_GUST BOM_GUST BOM_GUST_PER REUNION_GUST REUNION_GUST_PER USA_SEAHGT USA_SEARAD_NE USA_SEARAD_SE USA_SEARAD_SW USA_SEARAD_NW STORM_SPEED STORM_DIR
1969335N12138 1969 115 WP MM NOT_NAMED 1969-12-01 06:00:00 TS 12.0000 138.000 main 1328 1227 __O___________ -1 12.0000 138.000 0 19 1008 20 256
1969335N12138 1969 115 WP MM NOT_NAMED 1969-12-01 09:00:00 TS 11.7560 137.020 main 1216 1161 __P___________ -1 11.7560 137.020 0 19 1008 15 262
1969335N12138 1969 115 WP MM NOT_NAMED 1969-12-01 12:00:00 TS 11.8000 136.500 main 1163 1163 __O___________ -1 11.8000 136.500 0 19 1008 6 332
1969335N12138 1969 115 WP MM NOT_NAMED 1969-12-01 15:00:00 TS 12.3100 136.714 main 1196 1196 __P___________ -1 12.3100 136.714 0 19 1008 14 30
1969335N12138 1969 115 WP MM NOT_NAMED 1969-12-01 18:00:00 TS 13.0000 137.200 main 1260 1260 __O___________ -1 13.0000 137.200 0 19 1008 14 30
1969335N12138 1969 115 WP MM NOT_NAMED 1969-12-01 21:00:00 TS 13.5149 137.440 main 1291 1291 __P___________ -1 13.5149 137.440 0 24 1008 10 16
1969335N12138 1969 115 WP MM NOT_NAMED 1969-12-02 00:00:00 TS 14.0000 137.500 main 1314 1309 __O___________ -1 14.0000 137.500 1 29 1008 10 355
1969335N12138 1969 115 WP MM NOT_NAMED 1969-12-02 03:00:00 TS 14.4774 137.347 main 1302 1279 __P___________ -1 14.4774 137.347 1 29 1007 11 334
1969335N12138 1969 115 WP MM NOT_NAMED 1969-12-02 06:00:00 TS 15.0000 137.000 main 1282 1250 __O___________ -1 15.0000 137.000 1 29 1006 15 327
1969335N12138 1969 115 WP MM NOT_NAMED 1969-12-02 09:00:00 TS 15.7478 136.501 main 1250 1221 __P___________ -1 15.7478 136.501 1 29 1006 16 323
1969335N12138 1969 115 WP MM NOT_NAMED 1969-12-02 12:00:00 TS 16.3000 136.000 main 1221 1191 __O___________ -1 16.3000 136.000 1 29 1006 9 305
1969335N12138 1969 115 WP MM NOT_NAMED 1969-12-02 15:00:00 TS 16.2848 135.712 main 1191 1159 __P___________ -1 16.2848 135.712 1 29 1006 6 238
1969335N12138 1969 115 WP MM NOT_NAMED 1969-12-02 18:00:00 TS 16.0000 135.500 main 1159 1131 __O___________ -1 16.0000 135.500 1 29 1006 7 220
1969335N12138 1969 115 WP MM NOT_NAMED 1969-12-02 21:00:00 TS 15.7649 135.258 main 1131 1090 __P___________ -1 15.7649 135.258 1 29 1005 7 224
1969335N12138 1969 115 WP MM NOT_NAMED 1969-12-03 00:00:00 TS 15.5000 135.000 main 1090 1039 __O___________ -1 15.5000 135.000 1 29 1004 9 230
1969335N12138 1969 115 WP MM NOT_NAMED 1969-12-03 03:00:00 TS 15.1973 134.550 main 1028 1012 __P___________ -1 15.1973 134.550 1 29 1004 8 229
1969335N12138 1969 115 WP MM NOT_NAMED 1969-12-03 06:00:00 TS 15.0000 134.400 main 1012 1012 __O___________ -1 15.0000 134.400 1 29 1004 5 115
1969335N12138 1969 115 WP MM NOT_NAMED 1969-12-03 09:00:00 TS 14.9883 135.015 main 1073 1073 __P___________ -1 14.9883 135.015 1 29 1005 15 82
1969335N12138 1969 115 WP MM NOT_NAMED 1969-12-03 12:00:00 TS 15.2000 135.900 main 1173 1173 __O___________ -1 15.2000 135.900 1 29 1006 16 66
1969335N12138 1969 115 WP MM NOT_NAMED 1969-12-03 15:00:00 TS 15.6548 136.545 main 1250 1250 __P___________ -1 15.6548 136.545 1 24 1006 15 49
1969335N12138 1969 115 WP MM NOT_NAMED 1969-12-03 18:00:00 TS 16.2000 137.100 main 1328 1328 __O___________ -1 16.2000 137.100 0 19 1006 14 44
1969335N12138 1969 115 WP MM NOT_NAMED 1969-12-03 21:00:00 TS 16.6444 137.535 main 1383 1383 __P___________ -1 16.6444 137.535 0 19 1006 12 47
1969335N12138 1969 115 WP MM NOT_NAMED 1969-12-04 00:00:00 TS 17.0000 138.000 main 1448 1448 __O___________ -1 17.0000 138.000 0 19 1006 13 61
1969335N12138 1969 115 WP MM NOT_NAMED 1969-12-04 03:00:00 TS 17.2527 138.677 main 1529 1529 __P___________ -1 17.2527 138.677 0 19 1006 14 73
1969335N12138 1969 115 WP MM NOT_NAMED 1969-12-04 06:00:00 TS 17.4000 139.400 main 1603 1603 __O___________ -1 17.4000 139.400 0 19 1006 13 80
1969335N12138 1969 115 WP MM NOT_NAMED 1969-12-04 09:00:00 TS 17.4723 140.030 main 1667 1667 __P___________ -1 17.4723 140.030 0 1007 12 85
1969335N12138 1969 115 WP MM NOT_NAMED 1969-12-04 12:00:00 TS 17.5000 140.600 main 1727 1727 __O___________ -1 17.5000 140.600 0 1008 10 86
1969335N12138 1969 115 WP MM NOT_NAMED 1969-12-04 15:00:00 TS 17.5427 141.115 main 1778 1778 __P___________ -1 17.5427 141.115 0 1009 10 84
1969335N12138 1969 115 WP MM NOT_NAMED 1969-12-04 18:00:00 TS 17.6000 141.600 main 1832 __O___________ -1 17.6000 141.600 0 1010 9 83

Digital Typhoon Data and Search

About IBTrACS Database

This database is a web-friendly format of International Best Track Archive for Climate Stewardship (IBTrACS), a global best track data archive curated by NOAA dating back to 1842.

Updated: 2021-12-06